Time,TemperatureF,DewpointF,PressureIn,WindDirection,WindDirectionDegrees,WindSpeedMPH,WindSpeedGustMPH,Humidity,HourlyPrecipIn,Conditions,Clouds,dailyrainin,SoftwareType,DateUTC
2013-02-01 00:01:00,-0.2,-6.6,30.32,WNW,293,2.0,6.7,74,0.00,,,0.00,WUHU216HW,2013-02-01 06:01:00,
2013-02-01 00:06:00,-0.2,-6.6,30.33,West,270,0.0,3.1,74,0.00,,,0.00,WUHU216HW,2013-02-01 06:06:00,
2013-02-01 00:11:00,-0.5,-6.9,30.33,West,270,3.1,3.1,74,0.00,,,0.00,WUHU216HW,2013-02-01 06:11:00,
2013-02-01 00:16:00,-0.7,-7.1,30.33,NNW,338,0.6,3.1,74,0.00,,,0.00,WUHU216HW,2013-02-01 06:16:00,
2013-02-01 00:21:00,-1.1,-7.4,30.33,West,270,2.4,3.1,74,0.00,,,0.00,WUHU216HW,2013-02-01 06:21:00,
2013-02-01 00:26:00,-1.1,-7.4,30.33,WNW,293,2.9,2.9,74,0.00,,,0.00,WUHU216HW,2013-02-01 06:26:00,
2013-02-01 00:31:00,-1.3,-7.6,30.32,WNW,293,2.6,2.9,74,0.00,,,0.00,WUHU216HW,2013-02-01 06:31:00,
2013-02-01 00:36:00,-1.4,-7.8,30.33,WNW,293,3.1,3.1,74,0.00,,,0.00,WUHU216HW,2013-02-01 06:36:00,
2013-02-01 00:41:00,-1.4,-7.8,30.33,WSW,248,2.6,3.1,74,0.00,,,0.00,WUHU216HW,2013-02-01 06:41:00,
2013-02-01 00:46:00,-1.4,-7.5,30.33,West,270,1.5,3.1,75,0.00,,,0.00,WUHU216HW,2013-02-01 06:46:00,
2013-02-01 00:51:00,-1.4,-7.5,30.33,West,270,4.6,4.6,75,0.00,,,0.00,WUHU216HW,2013-02-01 06:51:00,
2013-02-01 00:56:00,-1.6,-7.7,30.33,West,270,4.0,6.7,75,0.00,,,0.00,WUHU216HW,2013-02-01 06:56:00,
2013-02-01 01:01:00,-1.6,-7.9,30.33,West,270,3.5,6.7,74,0.00,,,0.00,WUHU216HW,2013-02-01 07:01:00,
2013-02-01 01:06:00,-2.0,-8.0,30.33,West,270,0.0,3.5,75,0.00,,,0.00,WUHU216HW,2013-02-01 07:06:00,
2013-02-01 01:11:00,-2.2,-8.2,30.34,West,270,0.0,3.5,75,0.00,,,0.00,WUHU216HW,2013-02-01 07:11:00,
2013-02-01 01:16:00,-2.3,-8.4,30.33,West,270,5.3,5.3,75,0.00,,,0.00,WUHU216HW,2013-02-01 07:16:00,
2013-02-01 01:21:00,-2.2,-8.2,30.33,West,270,8.9,8.9,75,0.00,,,0.00,WUHU216HW,2013-02-01 07:21:00,
2013-02-01 01:26:00,-2.2,-8.2,30.33,West,270,0.0,8.9,75,0.00,,,0.00,WUHU216HW,2013-02-01 07:26:00,
2013-02-01 01:31:00,-2.3,-8.4,30.34,West,270,1.3,8.9,75,0.00,,,0.00,WUHU216HW,2013-02-01 07:31:00,
2013-02-01 01:36:00,-2.3,-8.4,30.34,West,270,2.2,4.0,75,0.00,,,0.00,WUHU216HW,2013-02-01 07:36:00,
2013-02-01 01:41:00,-2.3,-8.4,30.33,West,270,1.3,3.1,75,0.00,,,0.00,WUHU216HW,2013-02-01 07:41:00,
2013-02-01 01:46:00,-2.3,-8.4,30.34,West,270,4.9,4.9,75,0.00,,,0.00,WUHU216HW,2013-02-01 07:46:00,
2013-02-01 01:51:00,-2.5,-8.5,30.34,West,270,1.7,4.9,75,0.00,,,0.00,WUHU216HW,2013-02-01 07:51:00,
2013-02-01 01:56:00,-2.5,-8.5,30.34,West,270,2.4,4.9,75,0.00,,,0.00,WUHU216HW,2013-02-01 07:56:00,
2013-02-01 02:01:00,-3.2,-9.3,30.35,West,270,2.9,3.8,75,0.00,,,0.00,WUHU216HW,2013-02-01 08:01:00,
2013-02-01 02:06:00,-3.2,-9.3,30.35,West,270,1.5,3.8,75,0.00,,,0.00,WUHU216HW,2013-02-01 08:06:00,
2013-02-01 02:11:00,-3.2,-9.0,30.35,West,270,3.8,3.8,76,0.00,,,0.00,WUHU216HW,2013-02-01 08:11:00,
2013-02-01 02:16:00,-3.2,-9.0,30.35,West,270,6.9,6.9,76,0.00,,,0.00,WUHU216HW,2013-02-01 08:16:00,
2013-02-01 02:21:00,-3.2,-9.0,30.36,West,270,3.8,6.9,76,0.00,,,0.00,WUHU216HW,2013-02-01 08:21:00,
2013-02-01 02:26:00,-3.2,-9.0,30.35,West,270,0.0,6.9,76,0.00,,,0.00,WUHU216HW,2013-02-01 08:26:00,
2013-02-01 02:31:00,-3.2,-9.0,30.35,West,270,2.0,4.6,76,0.00,,,0.00,WUHU216HW,2013-02-01 08:31:00,
2013-02-01 02:36:00,-3.2,-9.0,30.35,West,270,2.0,2.4,76,0.00,,,0.00,WUHU216HW,2013-02-01 08:36:00,
2013-02-01 02:41:00,-3.2,-9.0,30.35,West,270,0.8,2.0,76,0.00,,,0.00,WUHU216HW,2013-02-01 08:41:00,
2013-02-01 02:46:00,-3.2,-9.0,30.35,West,270,0.0,2.0,76,0.00,,,0.00,WUHU216HW,2013-02-01 08:46:00,
2013-02-01 02:51:00,-3.4,-9.2,30.35,West,270,3.5,3.5,76,0.00,,,0.00,WUHU216HW,2013-02-01 08:51:00,
2013-02-01 02:56:00,-3.4,-9.2,30.35,West,270,2.6,3.8,76,0.00,,,0.00,WUHU216HW,2013-02-01 08:56:00,
2013-02-01 03:01:00,-3.6,-9.4,30.35,West,270,0.8,3.8,76,0.00,,,0.00,WUHU216HW,2013-02-01 09:01:00,
2013-02-01 03:06:00,-3.8,-9.8,30.35,West,270,1.5,1.5,75,0.00,,,0.00,WUHU216HW,2013-02-01 09:06:00,
2013-02-01 03:11:00,-3.8,-9.8,30.35,West,270,0.8,3.5,75,0.00,,,0.00,WUHU216HW,2013-02-01 09:11:00,
2013-02-01 03:16:00,-4.1,-10.2,30.34,West,270,1.7,3.5,75,0.00,,,0.00,WUHU216HW,2013-02-01 09:16:00,
2013-02-01 03:21:00,-4.3,-10.3,30.34,West,270,0.8,1.7,75,0.00,,,0.00,WUHU216HW,2013-02-01 09:21:00,
2013-02-01 03:26:00,-4.3,-10.1,30.34,West,270,3.8,3.8,76,0.00,,,0.00,WUHU216HW,2013-02-01 09:26:00,
2013-02-01 03:31:00,-4.1,-9.9,30.34,West,270,0.8,3.8,76,0.00,,,0.00,WUHU216HW,2013-02-01 09:31:00,
2013-02-01 03:36:00,-4.1,-9.9,30.34,West,270,0.0,2.9,76,0.00,,,0.00,WUHU216HW,2013-02-01 09:36:00,
2013-02-01 03:41:00,-4.3,-10.1,30.34,West,270,0.0,3.5,76,0.00,,,0.00,WUHU216HW,2013-02-01 09:41:00,
2013-02-01 03:46:00,-4.3,-10.1,30.34,West,270,2.4,3.5,76,0.00,,,0.00,WUHU216HW,2013-02-01 09:46:00,
2013-02-01 03:51:00,-4.3,-10.1,30.34,West,270,1.3,3.5,76,0.00,,,0.00,WUHU216HW,2013-02-01 09:51:00,
2013-02-01 03:56:00,-4.1,-9.9,30.35,West,270,2.2,3.5,76,0.00,,,0.00,WUHU216HW,2013-02-01 09:56:00,
2013-02-01 04:01:00,-4.1,-9.9,30.35,West,270,0.0,3.5,76,0.00,,,0.00,WUHU216HW,2013-02-01 10:01:00,
2013-02-01 04:06:00,-4.1,-9.9,30.35,West,270,0.8,2.4,76,0.00,,,0.00,WUHU216HW,2013-02-01 10:06:00,
2013-02-01 04:11:00,-4.3,-10.1,30.35,West,270,0.0,2.4,76,0.00,,,0.00,WUHU216HW,2013-02-01 10:11:00,
2013-02-01 04:16:00,-4.3,-10.1,30.35,West,270,0.0,2.6,76,0.00,,,0.00,WUHU216HW,2013-02-01 10:16:00,
2013-02-01 04:21:00,-4.7,-10.4,30.35,West,270,1.3,2.6,76,0.00,,,0.00,WUHU216HW,2013-02-01 10:21:00,
2013-02-01 04:26:00,-4.9,-10.6,30.35,West,270,1.1,1.3,76,0.00,,,0.00,WUHU216HW,2013-02-01 10:26:00,
2013-02-01 04:31:00,-5.0,-10.8,30.35,West,270,4.6,4.6,76,0.00,,,0.00,WUHU216HW,2013-02-01 10:31:00,
2013-02-01 04:36:00,-4.9,-10.6,30.34,West,270,0.0,4.6,76,0.00,,,0.00,WUHU216HW,2013-02-01 10:36:00,
2013-02-01 04:41:00,-4.9,-10.6,30.34,West,270,1.1,4.6,76,0.00,,,0.00,WUHU216HW,2013-02-01 10:41:00,
2013-02-01 04:46:00,-5.0,-10.8,30.34,West,270,0.0,3.5,76,0.00,,,0.00,WUHU216HW,2013-02-01 10:46:00,
2013-02-01 04:51:00,-5.0,-10.8,30.34,West,270,0.0,3.5,76,0.00,,,0.00,WUHU216HW,2013-02-01 10:51:00,
2013-02-01 04:56:00,-5.2,-11.0,30.34,West,270,1.5,2.9,76,0.00,,,0.00,WUHU216HW,2013-02-01 10:56:00,
2013-02-01 05:01:00,-5.4,-11.0,30.34,West,270,2.4,2.9,76,0.00,,,0.00,WUHU216HW,2013-02-01 11:01:00,
2013-02-01 05:06:00,-5.2,-10.7,30.34,West,270,0.0,2.4,77,0.00,,,0.00,WUHU216HW,2013-02-01 11:06:00,
2013-02-01 05:11:00,-5.2,-10.7,30.33,West,270,4.4,4.4,77,0.00,,,0.00,WUHU216HW,2013-02-01 11:11:00,
2013-02-01 05:16:00,-5.0,-10.5,30.34,West,270,2.4,4.4,77,0.00,,,0.00,WUHU216HW,2013-02-01 11:16:00,
2013-02-01 05:21:00,-5.0,-10.5,30.34,West,270,2.0,2.9,77,0.00,,,0.00,WUHU216HW,2013-02-01 11:21:00,
2013-02-01 05:26:00,-5.2,-10.7,30.34,West,270,1.1,2.4,77,0.00,,,0.00,WUHU216HW,2013-02-01 11:26:00,
2013-02-01 05:31:00,-5.4,-10.9,30.34,West,270,0.0,2.4,77,0.00,,,0.00,WUHU216HW,2013-02-01 11:31:00,
2013-02-01 05:36:00,-5.4,-10.9,30.34,West,270,1.5,2.4,77,0.00,,,0.00,WUHU216HW,2013-02-01 11:36:00,
2013-02-01 05:41:00,-5.4,-10.9,30.34,West,270,0.0,1.5,77,0.00,,,0.00,WUHU216HW,2013-02-01 11:41:00,
2013-02-01 05:46:00,-5.6,-11.2,30.33,West,270,0.0,1.7,77,0.00,,,0.00,WUHU216HW,2013-02-01 11:46:00,
2013-02-01 05:51:00,-5.9,-11.4,30.34,West,270,0.0,1.7,77,0.00,,,0.00,WUHU216HW,2013-02-01 11:51:00,
2013-02-01 05:56:00,-6.1,-11.6,30.34,West,270,1.3,2.0,77,0.00,,,0.00,WUHU216HW,2013-02-01 11:56:00,
2013-02-01 06:01:00,-6.3,-11.8,30.34,West,270,4.4,4.4,77,0.00,,,0.00,WUHU216HW,2013-02-01 12:01:00,
2013-02-01 06:06:00,-6.1,-11.6,30.33,West,270,2.4,4.4,77,0.00,,,0.00,WUHU216HW,2013-02-01 12:06:00,
2013-02-01 06:11:00,-6.1,-11.6,30.32,West,270,0.0,2.6,77,0.00,,,0.00,WUHU216HW,2013-02-01 12:11:00,
2013-02-01 06:17:00,-6.3,-11.9,30.33,West,270,1.3,3.3,77,0.00,,,0.00,WUHU216HW,2013-02-01 12:17:00,
2013-02-01 06:22:00,-6.7,-12.1,30.32,West,270,0.0,3.3,77,0.00,,,0.00,WUHU216HW,2013-02-01 12:22:00,
2013-02-01 06:27:00,-6.8,-12.3,30.32,West,270,0.0,1.3,77,0.00,,,0.00,WUHU216HW,2013-02-01 12:27:00,
2013-02-01 06:32:00,-7.0,-12.5,30.32,West,270,0.8,0.8,77,0.00,,,0.00,WUHU216HW,2013-02-01 12:32:00,
2013-02-01 06:37:00,-7.2,-12.6,30.32,West,270,0.0,0.8,77,0.00,,,0.00,WUHU216HW,2013-02-01 12:37:00,
2013-02-01 06:42:00,-7.4,-12.8,30.32,West,270,0.0,0.0,77,0.00,,,0.00,WUHU216HW,2013-02-01 12:42:00,
2013-02-01 06:47:00,-7.7,-13.4,30.32,West,270,3.8,3.8,76,0.00,,,0.00,WUHU216HW,2013-02-01 12:47:00,
2013-02-01 06:52:00,-7.9,-13.6,30.33,West,270,1.5,3.8,76,0.00,,,0.00,WUHU216HW,2013-02-01 12:52:00,
2013-02-01 06:57:00,-7.9,-13.3,30.32,West,270,0.0,3.8,77,0.00,,,0.00,WUHU216HW,2013-02-01 12:57:00,
2013-02-01 07:02:00,-7.9,-13.3,30.33,West,270,1.1,1.5,77,0.00,,,0.00,WUHU216HW,2013-02-01 13:02:00,
2013-02-01 07:07:00,-7.7,-13.2,30.33,West,270,0.0,1.7,77,0.00,,,0.00,WUHU216HW,2013-02-01 13:07:00,
2013-02-01 07:12:00,-7.7,-13.2,30.33,West,270,2.6,2.6,77,0.00,,,0.00,WUHU216HW,2013-02-01 13:12:00,
2013-02-01 07:17:00,-7.7,-13.2,30.34,West,270,1.3,2.6,77,0.00,,,0.00,WUHU216HW,2013-02-01 13:17:00,
2013-02-01 07:22:00,-7.7,-13.2,30.34,West,270,0.0,2.0,77,0.00,,,0.00,WUHU216HW,2013-02-01 13:22:00,
2013-02-01 07:27:00,-7.7,-13.2,30.35,West,270,0.0,1.5,77,0.00,,,0.00,WUHU216HW,2013-02-01 13:27:00,
2013-02-01 07:32:00,-7.4,-12.8,30.35,West,270,2.2,2.2,77,0.00,,,0.00,WUHU216HW,2013-02-01 13:32:00,
2013-02-01 07:37:00,-7.2,-12.6,30.35,West,270,0.0,2.4,77,0.00,,,0.00,WUHU216HW,2013-02-01 13:37:00,
2013-02-01 07:42:00,-7.2,-12.6,30.36,West,270,0.8,2.4,77,0.00,,,0.00,WUHU216HW,2013-02-01 13:42:00,
2013-02-01 07:47:00,-6.8,-12.0,30.36,West,270,0.0,1.7,78,0.00,,,0.00,WUHU216HW,2013-02-01 13:47:00,
2013-02-01 07:52:00,-6.5,-11.7,30.36,West,270,1.7,1.7,78,0.00,,,0.00,WUHU216HW,2013-02-01 13:52:00,
2013-02-01 07:57:00,-5.6,-10.5,30.36,West,270,1.3,3.5,79,0.00,,,0.00,WUHU216HW,2013-02-01 13:57:00,
2013-02-01 08:02:00,-5.2,-10.2,30.36,West,270,0.0,3.5,79,0.00,,,0.00,WUHU216HW,2013-02-01 14:02:00,
2013-02-01 08:07:00,-5.0,-10.0,30.36,West,270,0.0,1.3,79,0.00,,,0.00,WUHU216HW,2013-02-01 14:07:00,
2013-02-01 08:12:00,-4.7,-9.6,30.36,West,270,0.8,0.8,79,0.00,,,0.00,WUHU216HW,2013-02-01 14:12:00,
2013-02-01 08:17:00,-4.7,-9.6,30.36,West,270,0.0,0.8,79,0.00,,,0.00,WUHU216HW,2013-02-01 14:17:00,
2013-02-01 08:22:00,-4.3,-9.3,30.35,West,270,0.0,0.8,79,0.00,,,0.00,WUHU216HW,2013-02-01 14:22:00,
2013-02-01 08:27:00,-4.1,-9.1,30.36,West,270,0.0,0.0,79,0.00,,,0.00,WUHU216HW,2013-02-01 14:27:00,
2013-02-01 08:32:00,-3.8,-8.7,30.37,West,270,1.1,2.2,79,0.00,,,0.00,WUHU216HW,2013-02-01 14:32:00,
2013-02-01 08:37:00,-3.2,-8.2,30.37,West,270,0.8,4.4,79,0.00,,,0.00,WUHU216HW,2013-02-01 14:37:00,
2013-02-01 08:42:00,-1.3,-5.9,30.37,West,270,2.4,4.4,80,0.00,,,0.00,WUHU216HW,2013-02-01 14:42:00,
2013-02-01 08:47:00,0.5,-4.2,30.37,West,270,1.3,3.5,80,0.00,,,0.00,WUHU216HW,2013-02-01 14:47:00,
2013-02-01 08:52:00,2.1,-3.0,30.37,West,270,1.1,2.4,79,0.00,,,0.00,WUHU216HW,2013-02-01 14:52:00,
2013-02-01 08:57:00,4.6,-0.7,30.36,West,270,1.5,2.9,78,0.00,,,0.00,WUHU216HW,2013-02-01 14:57:00,
2013-02-01 09:02:00,4.8,-1.4,30.37,West,270,0.8,2.9,75,0.00,,,0.00,WUHU216HW,2013-02-01 15:02:00,
2013-02-01 09:07:00,4.8,-1.7,30.36,West,270,3.1,3.1,74,0.00,,,0.00,WUHU216HW,2013-02-01 15:07:00,
2013-02-01 09:12:00,4.8,-2.0,30.36,West,270,0.0,3.1,73,0.00,,,0.00,WUHU216HW,2013-02-01 15:12:00,
2013-02-01 09:17:00,4.8,-2.6,30.35,West,270,1.5,1.7,71,0.00,,,0.00,WUHU216HW,2013-02-01 15:17:00,
2013-02-01 09:22:00,4.4,-3.2,30.35,West,270,2.6,2.6,70,0.00,,,0.00,WUHU216HW,2013-02-01 15:22:00,
2013-02-01 09:27:00,4.8,-3.2,30.35,West,270,4.2,4.2,69,0.00,,,0.00,WUHU216HW,2013-02-01 15:27:00,
2013-02-01 09:32:00,5.3,-3.0,30.34,West,270,4.0,4.2,68,0.00,,,0.00,WUHU216HW,2013-02-01 15:32:00,
2013-02-01 09:37:00,6.6,-1.4,30.35,West,270,0.0,4.2,69,0.00,,,0.00,WUHU216HW,2013-02-01 15:37:00,
2013-02-01 09:42:00,9.6,1.1,30.34,West,270,2.2,5.8,68,0.00,,,0.00,WUHU216HW,2013-02-01 15:42:00,
2013-02-01 09:47:00,10.0,0.8,30.35,West,270,0.0,5.8,66,0.00,,,0.00,WUHU216HW,2013-02-01 15:47:00,
2013-02-01 09:52:00,10.2,0.3,30.34,West,270,4.2,4.2,64,0.00,,,0.00,WUHU216HW,2013-02-01 15:52:00,
2013-02-01 09:57:00,10.0,-0.1,30.34,West,270,3.8,4.2,63,0.00,,,0.00,WUHU216HW,2013-02-01 15:57:00,
2013-02-01 10:02:00,10.0,-0.1,30.34,West,270,1.7,3.8,63,0.00,,,0.00,WUHU216HW,2013-02-01 16:02:00,
2013-02-01 10:07:00,10.2,-0.2,30.35,West,270,2.9,3.8,62,0.00,,,0.00,WUHU216HW,2013-02-01 16:07:00,
2013-02-01 10:12:00,10.0,-0.7,30.35,West,270,2.4,2.9,61,0.00,,,0.00,WUHU216HW,2013-02-01 16:12:00,
2013-02-01 10:17:00,9.6,-1.1,30.35,West,270,2.9,5.3,61,0.00,,,0.00,WUHU216HW,2013-02-01 16:17:00,
2013-02-01 10:22:00,10.2,-0.6,30.34,West,270,2.6,5.3,61,0.00,,,0.00,WUHU216HW,2013-02-01 16:22:00,
2013-02-01 10:27:00,11.4,0.2,30.35,WSW,248,4.6,6.0,60,0.00,,,0.00,WUHU216HW,2013-02-01 16:27:00,
2013-02-01 10:32:00,11.4,0.2,30.35,SW,225,0.0,6.0,60,0.00,,,0.00,WUHU216HW,2013-02-01 16:32:00,
2013-02-01 10:37:00,12.5,0.8,30.35,SW,225,6.2,6.2,59,0.00,,,0.00,WUHU216HW,2013-02-01 16:37:00,
2013-02-01 10:42:00,10.5,-1.7,30.35,SW,225,4.4,6.2,57,0.00,,,0.00,WUHU216HW,2013-02-01 16:42:00,
2013-02-01 10:47:00,10.2,-2.0,30.35,SW,225,3.5,5.5,57,0.00,,,0.00,WUHU216HW,2013-02-01 16:47:00,
2013-02-01 10:52:00,11.3,-0.7,30.34,SW,225,0.0,4.4,58,0.00,,,0.00,WUHU216HW,2013-02-01 16:52:00,
2013-02-01 10:57:00,12.0,-0.4,30.33,SW,225,2.4,4.0,57,0.00,,,0.00,WUHU216HW,2013-02-01 16:57:00,
2013-02-01 11:02:00,13.6,1.1,30.33,SW,225,0.0,4.0,57,0.00,,,0.00,WUHU216HW,2013-02-01 17:02:00,
2013-02-01 11:07:00,15.9,3.3,30.33,SW,225,3.8,3.8,57,0.00,,,0.00,WUHU216HW,2013-02-01 17:07:00,
2013-02-01 11:12:00,15.6,1.4,30.33,South,180,5.5,5.5,53,0.00,,,0.00,WUHU216HW,2013-02-01 17:12:00,
2013-02-01 11:17:00,13.8,-0.2,30.32,South,180,2.4,5.5,53,0.00,,,0.00,WUHU216HW,2013-02-01 17:17:00,
2013-02-01 11:22:00,14.1,0.0,30.33,SSW,203,8.9,8.9,53,0.00,,,0.00,WUHU216HW,2013-02-01 17:22:00,
2013-02-01 11:27:00,13.8,-0.2,30.31,SSW,203,3.1,8.9,53,0.00,,,0.00,WUHU216HW,2013-02-01 17:27:00,
2013-02-01 11:32:00,13.1,-0.9,30.31,SSW,203,2.2,3.8,53,0.00,,,0.00,WUHU216HW,2013-02-01 17:32:00,
2013-02-01 11:37:00,12.3,-1.2,30.30,SSW,203,2.9,4.4,54,0.00,,,0.00,WUHU216HW,2013-02-01 17:37:00,
2013-02-01 11:42:00,14.1,0.4,30.31,SW,225,7.6,7.6,54,0.00,,,0.00,WUHU216HW,2013-02-01 17:42:00,
2013-02-01 11:47:00,13.8,-0.6,30.30,SSW,203,1.1,7.6,52,0.00,,,0.00,WUHU216HW,2013-02-01 17:47:00,
2013-02-01 11:52:00,13.6,-0.4,30.30,SSW,203,3.3,7.6,53,0.00,,,0.00,WUHU216HW,2013-02-01 17:52:00,
2013-02-01 11:57:00,12.9,-1.1,30.30,SSW,203,4.0,4.4,53,0.00,,,0.00,WUHU216HW,2013-02-01 17:57:00,
2013-02-01 12:02:00,12.0,-1.9,30.30,SSW,203,3.1,4.0,53,0.00,,,0.00,WUHU216HW,2013-02-01 18:02:00,
2013-02-01 12:07:00,11.8,-2.1,30.30,WSW,248,4.0,6.4,53,0.00,,,0.00,WUHU216HW,2013-02-01 18:07:00,
2013-02-01 12:12:00,13.6,-0.4,30.30,WSW,248,3.1,6.4,53,0.00,,,0.00,WUHU216HW,2013-02-01 18:12:00,
2013-02-01 12:17:00,14.1,-0.3,30.30,WSW,248,6.2,6.2,52,0.00,,,0.00,WUHU216HW,2013-02-01 18:17:00,
2013-02-01 12:22:00,14.3,-0.1,30.29,SSW,203,5.8,6.2,52,0.00,,,0.00,WUHU216HW,2013-02-01 18:22:00,
2013-02-01 12:27:00,12.7,-2.0,30.29,South,180,7.6,7.6,51,0.00,,,0.00,WUHU216HW,2013-02-01 18:27:00,
2013-02-01 12:32:00,12.9,-1.5,30.29,WSW,248,8.0,8.0,52,0.00,,,0.00,WUHU216HW,2013-02-01 18:32:00,
2013-02-01 12:37:00,12.7,-1.3,30.29,South,180,6.7,8.0,53,0.00,,,0.00,WUHU216HW,2013-02-01 18:37:00,
2013-02-01 12:42:00,13.6,-0.4,30.28,SSW,203,4.2,6.7,53,0.00,,,0.00,WUHU216HW,2013-02-01 18:42:00,
2013-02-01 12:47:00,13.8,-0.6,30.28,SSW,203,4.2,4.2,52,0.00,,,0.00,WUHU216HW,2013-02-01 18:47:00,
2013-02-01 12:52:00,13.8,-0.2,30.28,SW,225,8.9,8.9,53,0.00,,,0.00,WUHU216HW,2013-02-01 18:52:00,
2013-02-01 12:57:00,13.6,-0.8,30.28,SSW,203,10.5,10.5,52,0.00,,,0.00,WUHU216HW,2013-02-01 18:57:00,
2013-02-01 13:02:00,12.7,-1.6,30.27,South,180,10.5,10.5,52,0.00,,,0.00,WUHU216HW,2013-02-01 19:02:00,
2013-02-01 13:07:00,12.2,-1.7,30.27,WSW,248,8.9,10.5,53,0.00,,,0.00,WUHU216HW,2013-02-01 19:07:00,
2013-02-01 13:12:00,12.0,-1.5,30.26,South,180,4.6,10.2,54,0.00,,,0.00,WUHU216HW,2013-02-01 19:12:00,
2013-02-01 13:17:00,12.0,-1.5,30.26,South,180,5.8,10.2,54,0.00,,,0.00,WUHU216HW,2013-02-01 19:17:00,
2013-02-01 13:22:00,12.5,-0.6,30.25,SSW,203,8.0,8.0,55,0.00,,,0.00,WUHU216HW,2013-02-01 19:22:00,
2013-02-01 13:27:00,12.3,-0.8,30.26,South,180,6.7,13.4,55,0.00,,,0.00,WUHU216HW,2013-02-01 19:27:00,
2013-02-01 13:32:00,12.3,-0.8,30.25,South,180,4.2,13.4,55,0.00,,,0.00,WUHU216HW,2013-02-01 19:32:00,
2013-02-01 13:37:00,12.3,-0.8,30.24,SSW,203,9.1,9.1,55,0.00,,,0.00,WUHU216HW,2013-02-01 19:37:00,
2013-02-01 13:42:00,12.0,-1.1,30.24,South,180,6.0,9.1,55,0.00,,,0.00,WUHU216HW,2013-02-01 19:42:00,
2013-02-01 13:47:00,12.0,-0.8,30.23,South,180,4.9,8.2,56,0.00,,,0.00,WUHU216HW,2013-02-01 19:47:00,
2013-02-01 13:52:00,11.8,-1.3,30.23,South,180,6.0,6.7,55,0.00,,,0.00,WUHU216HW,2013-02-01 19:52:00,
2013-02-01 13:57:00,11.1,-1.6,30.23,SSW,203,6.9,8.9,56,0.00,,,0.00,WUHU216HW,2013-02-01 19:57:00,
2013-02-01 14:02:00,10.7,-1.5,30.22,South,180,7.3,8.9,57,0.00,,,0.00,WUHU216HW,2013-02-01 20:02:00,
2013-02-01 14:07:00,10.9,-1.4,30.22,South,180,8.2,8.2,57,0.00,,,0.00,WUHU216HW,2013-02-01 20:07:00,
2013-02-01 14:12:00,10.5,-1.7,30.22,SSW,203,7.6,8.5,57,0.00,,,0.00,WUHU216HW,2013-02-01 20:12:00,
2013-02-01 14:17:00,10.5,-1.3,30.22,South,180,6.7,8.5,58,0.00,,,0.00,WUHU216HW,2013-02-01 20:17:00,
2013-02-01 14:22:00,10.7,-0.8,30.21,South,180,8.5,8.5,59,0.00,,,0.00,WUHU216HW,2013-02-01 20:22:00,
2013-02-01 14:27:00,10.9,-0.6,30.22,South,180,7.6,8.5,59,0.00,,,0.00,WUHU216HW,2013-02-01 20:27:00,
2013-02-01 14:32:00,10.9,-0.6,30.22,South,180,10.0,10.0,59,0.00,,,0.00,WUHU216HW,2013-02-01 20:32:00,
2013-02-01 14:37:00,11.1,-0.1,30.22,South,180,8.9,10.0,60,0.00,,,0.00,WUHU216HW,2013-02-01 20:37:00,
2013-02-01 14:42:00,11.3,-0.3,30.22,South,180,3.5,11.1,59,0.00,,,0.00,WUHU216HW,2013-02-01 20:42:00,
2013-02-01 14:47:00,11.8,0.1,30.22,SSW,203,3.1,11.1,59,0.00,,,0.00,WUHU216HW,2013-02-01 20:47:00,
2013-02-01 14:52:00,11.8,0.1,30.22,South,180,8.2,10.5,59,0.00,,,0.00,WUHU216HW,2013-02-01 20:52:00,
2013-02-01 14:57:00,11.8,0.1,30.22,South,180,5.3,9.6,59,0.00,,,0.00,WUHU216HW,2013-02-01 20:57:00,
2013-02-01 15:03:00,12.0,0.3,30.21,SSE,158,2.9,9.6,59,0.00,,,0.00,WUHU216HW,2013-02-01 21:03:00,
2013-02-01 15:08:00,12.3,1.0,30.20,South,180,4.6,9.3,60,0.00,,,0.00,WUHU216HW,2013-02-01 21:08:00,
2013-02-01 15:13:00,12.7,1.4,30.20,SSW,203,6.7,8.7,60,0.00,,,0.00,WUHU216HW,2013-02-01 21:13:00,
2013-02-01 15:18:00,12.9,1.5,30.20,SSW,203,6.9,8.7,60,0.00,,,0.00,WUHU216HW,2013-02-01 21:18:00,
2013-02-01 15:23:00,12.7,1.4,30.20,SSW,203,7.1,9.3,60,0.00,,,0.00,WUHU216HW,2013-02-01 21:23:00,
2013-02-01 15:28:00,13.1,1.7,30.20,SSW,203,5.5,9.3,60,0.00,,,0.00,WUHU216HW,2013-02-01 21:28:00,
2013-02-01 15:33:00,13.6,2.3,30.19,South,180,5.1,12.9,60,0.00,,,0.00,WUHU216HW,2013-02-01 21:33:00,
2013-02-01 15:38:00,13.6,2.6,30.19,SSE,158,5.1,12.9,61,0.00,,,0.00,WUHU216HW,2013-02-01 21:38:00,
2013-02-01 15:43:00,13.8,2.8,30.19,SSW,203,12.3,12.3,61,0.00,,,0.00,WUHU216HW,2013-02-01 21:43:00,
2013-02-01 15:48:00,14.1,3.1,30.18,SSE,158,4.6,12.3,61,0.00,,,0.00,WUHU216HW,2013-02-01 21:48:00,
2013-02-01 15:53:00,14.1,3.1,30.18,South,180,3.1,4.6,61,0.00,,,0.00,WUHU216HW,2013-02-01 21:53:00,
2013-02-01 15:58:00,14.1,3.5,30.17,SE,135,6.2,11.8,62,0.00,,,0.00,WUHU216HW,2013-02-01 21:58:00,
2013-02-01 16:03:00,14.5,3.8,30.17,South,180,5.3,11.8,62,0.00,,,0.00,WUHU216HW,2013-02-01 22:03:00,
2013-02-01 16:08:00,14.5,3.8,30.17,South,180,4.4,10.2,62,0.00,,,0.00,WUHU216HW,2013-02-01 22:08:00,
2013-02-01 16:13:00,14.5,3.8,30.17,South,180,9.6,9.6,62,0.00,,,0.00,WUHU216HW,2013-02-01 22:13:00,
2013-02-01 16:18:00,14.3,4.0,30.16,South,180,3.8,10.2,63,0.00,,,0.00,WUHU216HW,2013-02-01 22:18:00,
2013-02-01 16:23:00,14.3,4.0,30.16,South,180,5.5,10.2,63,0.00,,,0.00,WUHU216HW,2013-02-01 22:23:00,
2013-02-01 16:28:00,14.1,3.5,30.16,South,180,8.0,11.4,62,0.00,,,0.00,WUHU216HW,2013-02-01 22:28:00,
2013-02-01 16:33:00,14.1,3.8,30.16,SSW,203,6.4,11.4,63,0.00,,,0.00,WUHU216HW,2013-02-01 22:33:00,
2013-02-01 16:38:00,14.1,3.8,30.16,South,180,9.1,9.8,63,0.00,,,0.00,WUHU216HW,2013-02-01 22:38:00,
2013-02-01 16:43:00,14.3,4.0,30.16,South,180,6.2,9.8,63,0.00,,,0.00,WUHU216HW,2013-02-01 22:43:00,
2013-02-01 16:48:00,14.3,4.0,30.15,South,180,7.6,9.1,63,0.00,,,0.00,WUHU216HW,2013-02-01 22:48:00,
2013-02-01 16:53:00,14.3,4.0,30.15,South,180,2.9,8.9,63,0.00,,,0.00,WUHU216HW,2013-02-01 22:53:00,
2013-02-01 16:58:00,14.5,4.5,30.14,South,180,3.8,7.6,64,0.00,,,0.00,WUHU216HW,2013-02-01 22:58:00,
2013-02-01 17:03:00,14.5,4.5,30.15,South,180,9.6,9.6,64,0.00,,,0.00,WUHU216HW,2013-02-01 23:03:00,
2013-02-01 17:08:00,14.5,4.5,30.14,South,180,10.7,10.7,64,0.00,,,0.00,WUHU216HW,2013-02-01 23:08:00,
2013-02-01 17:13:00,14.5,4.5,30.14,South,180,13.1,13.1,64,0.00,,,0.00,WUHU216HW,2013-02-01 23:13:00,
2013-02-01 17:18:00,14.5,4.5,30.14,South,180,9.1,13.1,64,0.00,,,0.00,WUHU216HW,2013-02-01 23:18:00,
2013-02-01 17:23:00,14.7,4.6,30.14,SSW,203,8.2,10.0,64,0.00,,,0.00,WUHU216HW,2013-02-01 23:23:00,
2013-02-01 17:28:00,14.7,4.6,30.14,South,180,4.2,10.0,64,0.00,,,0.00,WUHU216HW,2013-02-01 23:28:00,
2013-02-01 17:33:00,14.7,5.0,30.14,South,180,2.4,8.2,65,0.00,,,0.00,WUHU216HW,2013-02-01 23:33:00,
2013-02-01 17:38:00,14.7,5.0,30.14,South,180,8.0,8.0,65,0.00,,,0.00,WUHU216HW,2013-02-01 23:38:00,
2013-02-01 17:43:00,14.7,5.0,30.14,South,180,5.8,8.0,65,0.00,,,0.00,WUHU216HW,2013-02-01 23:43:00,
2013-02-01 17:48:00,14.7,5.3,30.14,South,180,4.9,8.0,66,0.00,,,0.00,WUHU216HW,2013-02-01 23:48:00,
2013-02-01 17:53:00,14.7,5.3,30.13,South,180,4.6,5.5,66,0.00,,,0.00,WUHU216HW,2013-02-01 23:53:00,
2013-02-01 17:58:00,14.7,5.3,30.13,South,180,4.0,5.1,66,0.00,,,0.00,WUHU216HW,2013-02-01 23:58:00,
2013-02-01 18:03:00,14.9,5.5,30.13,South,180,3.3,6.2,66,0.00,,,0.00,WUHU216HW,2013-02-02 00:03:00,
2013-02-01 18:08:00,15.0,6.0,30.12,South,180,8.9,8.9,67,0.00,,,0.00,WUHU216HW,2013-02-02 00:08:00,
2013-02-01 18:13:00,15.0,6.0,30.12,South,180,1.7,8.9,67,0.00,,,0.00,WUHU216HW,2013-02-02 00:13:00,
2013-02-01 18:18:00,15.2,6.1,30.12,SSW,203,5.1,8.9,67,0.00,,,0.00,WUHU216HW,2013-02-02 00:18:00,
2013-02-01 18:23:00,15.4,6.3,30.11,South,180,4.9,7.1,67,0.00,,,0.00,WUHU216HW,2013-02-02 00:23:00,
2013-02-01 18:28:00,15.4,6.3,30.11,South,180,6.7,7.1,67,0.00,,,0.00,WUHU216HW,2013-02-02 00:28:00,
2013-02-01 18:33:00,15.6,6.5,30.11,South,180,4.0,7.8,67,0.00,,,0.00,WUHU216HW,2013-02-02 00:33:00,
2013-02-01 18:38:00,15.6,6.8,30.10,SSE,158,3.3,7.8,68,0.00,,,0.00,WUHU216HW,2013-02-02 00:38:00,
2013-02-01 18:43:00,15.6,6.8,30.10,SSE,158,3.3,4.6,68,0.00,,,0.00,WUHU216HW,2013-02-02 00:43:00,
2013-02-01 18:48:00,15.6,6.8,30.10,South,180,2.9,4.6,68,0.00,,,0.00,WUHU216HW,2013-02-02 00:48:00,
2013-02-01 18:53:00,15.6,7.1,30.09,South,180,3.1,3.3,69,0.00,,,0.00,WUHU216HW,2013-02-02 00:53:00,
2013-02-01 18:58:00,15.6,7.1,30.09,South,180,6.9,6.9,69,0.00,,,0.00,WUHU216HW,2013-02-02 00:58:00,
2013-02-01 19:03:00,15.6,7.1,30.09,South,180,3.5,6.9,69,0.00,,,0.00,WUHU216HW,2013-02-02 01:03:00,
2013-02-01 19:08:00,15.6,7.1,30.09,South,180,3.3,3.5,69,0.00,,,0.00,WUHU216HW,2013-02-02 01:08:00,
2013-02-01 19:13:00,15.6,7.5,30.08,South,180,2.9,3.5,70,0.00,,,0.00,WUHU216HW,2013-02-02 01:13:00,
2013-02-01 19:18:00,15.6,7.5,30.08,South,180,2.9,4.9,70,0.00,,,0.00,WUHU216HW,2013-02-02 01:18:00,
2013-02-01 19:23:00,15.6,7.5,30.08,South,180,3.3,4.9,70,0.00,,,0.00,WUHU216HW,2013-02-02 01:23:00,
2013-02-01 19:28:00,15.8,8.0,30.08,South,180,6.0,6.0,71,0.00,,,0.00,WUHU216HW,2013-02-02 01:28:00,
2013-02-01 19:33:00,15.9,8.1,30.08,South,180,5.1,9.6,71,0.00,,,0.00,WUHU216HW,2013-02-02 01:33:00,
2013-02-01 19:38:00,16.1,8.3,30.08,South,180,3.3,9.6,71,0.00,,,0.00,WUHU216HW,2013-02-02 01:38:00,
2013-02-01 19:43:00,16.3,8.5,30.08,South,180,4.2,5.1,71,0.00,,,0.00,WUHU216HW,2013-02-02 01:43:00,
2013-02-01 19:48:00,16.3,8.5,30.08,South,180,2.9,5.8,71,0.00,,,0.00,WUHU216HW,2013-02-02 01:48:00,
2013-02-01 19:53:00,16.5,9.0,30.07,South,180,6.0,6.0,72,0.00,,,0.00,WUHU216HW,2013-02-02 01:53:00,
2013-02-01 19:58:00,16.5,9.0,30.07,South,180,3.3,6.0,72,0.00,,,0.00,WUHU216HW,2013-02-02 01:58:00,
2013-02-01 20:03:00,16.7,9.1,30.07,South,180,2.2,6.0,72,0.00,,,0.00,WUHU216HW,2013-02-02 02:03:00,
2013-02-01 20:08:00,16.7,9.1,30.07,South,180,1.5,3.5,72,0.00,,,0.00,WUHU216HW,2013-02-02 02:08:00,
2013-02-01 20:13:00,16.8,9.6,30.07,South,180,3.1,3.5,73,0.00,,,0.00,WUHU216HW,2013-02-02 02:13:00,
2013-02-01 20:18:00,16.8,9.6,30.06,South,180,2.4,3.5,73,0.00,,,0.00,WUHU216HW,2013-02-02 02:18:00,
2013-02-01 20:23:00,16.8,9.6,30.06,South,180,2.0,5.3,73,0.00,,,0.00,WUHU216HW,2013-02-02 02:23:00,
2013-02-01 20:28:00,17.0,9.8,30.07,South,180,3.1,5.8,73,0.00,,,0.00,WUHU216HW,2013-02-02 02:28:00,
2013-02-01 20:33:00,17.4,10.4,30.06,South,180,3.8,5.8,74,0.00,,,0.00,WUHU216HW,2013-02-02 02:33:00,
2013-02-01 20:38:00,17.4,10.4,30.06,South,180,3.3,4.6,74,0.00,,,0.00,WUHU216HW,2013-02-02 02:38:00,
2013-02-01 20:43:00,17.6,10.6,30.06,South,180,3.5,3.8,74,0.00,,,0.00,WUHU216HW,2013-02-02 02:43:00,
2013-02-01 20:48:00,18.1,11.4,30.06,SSW,203,4.6,6.9,75,0.00,,,0.00,WUHU216HW,2013-02-02 02:48:00,
2013-02-01 20:53:00,18.5,11.7,30.07,SSW,203,3.1,6.9,75,0.00,,,0.00,WUHU216HW,2013-02-02 02:53:00,
2013-02-01 20:58:00,18.6,11.9,30.06,SSW,203,6.0,7.3,75,0.00,,,0.00,WUHU216HW,2013-02-02 02:58:00,
2013-02-01 21:03:00,19.0,12.0,30.06,SSW,203,4.9,7.3,74,0.00,,,0.00,WUHU216HW,2013-02-02 03:03:00,
2013-02-01 21:08:00,19.2,12.1,30.06,SSW,203,4.0,5.1,74,0.00,,,0.00,WUHU216HW,2013-02-02 03:08:00,
2013-02-01 21:13:00,19.5,12.5,30.06,SSW,203,7.1,7.1,74,0.00,,,0.00,WUHU216HW,2013-02-02 03:13:00,
2013-02-01 21:18:00,19.9,12.8,30.06,SSW,203,6.4,8.9,74,0.00,,,0.00,WUHU216HW,2013-02-02 03:18:00,
2013-02-01 21:23:00,20.3,13.2,30.06,South,180,11.4,11.4,74,0.00,,,0.00,WUHU216HW,2013-02-02 03:23:00,
2013-02-01 21:28:00,20.4,13.1,30.06,South,180,7.6,11.4,73,0.00,,,0.00,WUHU216HW,2013-02-02 03:28:00,
2013-02-01 21:33:00,20.8,13.4,30.06,South,180,9.1,11.6,73,0.00,,,0.00,WUHU216HW,2013-02-02 03:33:00,
2013-02-01 21:38:00,21.0,13.6,30.05,SSW,203,14.0,14.0,73,0.00,,,0.00,WUHU216HW,2013-02-02 03:38:00,
2013-02-01 21:43:00,21.0,13.6,30.05,SSW,203,10.2,14.0,73,0.00,,,0.00,WUHU216HW,2013-02-02 03:43:00,
2013-02-01 21:48:00,21.3,14.0,30.05,SSW,203,10.5,12.3,73,0.00,,,0.00,WUHU216HW,2013-02-02 03:48:00,
2013-02-01 21:53:00,21.3,14.0,30.05,South,180,11.6,11.6,73,0.00,,,0.00,WUHU216HW,2013-02-02 03:53:00,
2013-02-01 21:58:00,21.5,14.1,30.05,South,180,12.9,12.9,73,0.00,,,0.00,WUHU216HW,2013-02-02 03:58:00,
2013-02-01 22:03:00,21.7,14.3,30.04,SSW,203,6.9,12.9,73,0.00,,,0.00,WUHU216HW,2013-02-02 04:03:00,
2013-02-01 22:08:00,21.9,14.5,30.04,SSW,203,5.3,10.5,73,0.00,,,0.00,WUHU216HW,2013-02-02 04:08:00,
2013-02-01 22:13:00,21.9,14.5,30.04,SSW,203,7.6,11.4,73,0.00,,,0.00,WUHU216HW,2013-02-02 04:13:00,
2013-02-01 22:18:00,22.1,14.7,30.04,SSW,203,12.5,12.9,73,0.00,,,0.00,WUHU216HW,2013-02-02 04:18:00,
2013-02-01 22:23:00,22.4,15.0,30.04,South,180,5.5,12.9,73,0.00,,,0.00,WUHU216HW,2013-02-02 04:23:00,
2013-02-01 22:28:00,22.6,14.9,30.04,South,180,10.7,12.5,72,0.00,,,0.00,WUHU216HW,2013-02-02 04:28:00,
2013-02-01 22:33:00,22.8,15.1,30.05,SW,225,10.0,11.4,72,0.00,,,0.00,WUHU216HW,2013-02-02 04:33:00,
2013-02-01 22:38:00,22.8,15.1,30.05,SW,225,11.6,11.6,72,0.00,,,0.00,WUHU216HW,2013-02-02 04:38:00,
2013-02-01 22:43:00,23.1,15.1,30.04,SSW,203,11.1,11.8,71,0.00,,,0.00,WUHU216HW,2013-02-02 04:43:00,
2013-02-01 22:48:00,23.3,15.3,30.04,SSW,203,9.3,11.8,71,0.00,,,0.00,WUHU216HW,2013-02-02 04:48:00,
2013-02-01 22:53:00,23.5,15.5,30.04,SW,225,6.7,11.6,71,0.00,,,0.00,WUHU216HW,2013-02-02 04:53:00,
2013-02-01 22:58:00,23.5,15.5,30.04,SW,225,6.7,9.3,71,0.00,,,0.00,WUHU216HW,2013-02-02 04:58:00,
2013-02-01 23:00:00,23.7,15.6,30.04,SW,225,5.8,7.6,71,0.00,,,0.00,WUHU216HW,2013-02-02 05:00:00,
2013-02-01 23:01:00,23.7,15.6,30.04,SW,225,5.8,7.6,71,0.00,,,0.00,WUHU216HW,2013-02-02 05:01:00,
2013-02-01 23:06:00,23.9,15.8,30.04,WSW,248,14.9,14.9,71,0.00,,,0.00,WUHU216HW,2013-02-02 05:06:00,
2013-02-01 23:11:00,23.9,15.5,30.03,SW,225,7.6,18.3,70,0.00,,,0.00,WUHU216HW,2013-02-02 05:11:00,
2013-02-01 23:16:00,24.0,15.6,30.03,SSW,203,4.9,18.3,70,0.00,,,0.00,WUHU216HW,2013-02-02 05:16:00,
2013-02-01 23:21:00,24.0,15.6,30.03,SSW,203,7.6,11.4,70,0.00,,,0.00,WUHU216HW,2013-02-02 05:21:00,
2013-02-01 23:26:00,24.4,16.0,30.03,South,180,9.3,11.1,70,0.00,,,0.00,WUHU216HW,2013-02-02 05:26:00,
2013-02-01 23:31:00,24.4,16.0,30.02,South,180,10.2,10.2,70,0.00,,,0.00,WUHU216HW,2013-02-02 05:31:00,
2013-02-01 23:36:00,24.4,15.6,30.02,SSW,203,11.4,11.4,69,0.00,,,0.00,WUHU216HW,2013-02-02 05:36:00,
2013-02-01 23:41:00,24.6,15.4,30.02,South,180,7.6,14.9,68,0.00,,,0.00,WUHU216HW,2013-02-02 05:41:00,
2013-02-01 23:46:00,24.6,15.4,30.02,SSW,203,9.8,14.9,68,0.00,,,0.00,WUHU216HW,2013-02-02 05:46:00,
2013-02-01 23:51:00,24.6,15.4,30.02,SW,225,10.7,14.9,68,0.00,,,0.00,WUHU216HW,2013-02-02 05:51:00,
2013-02-01 23:56:00,24.6,15.4,30.02,SSW,203,9.1,20.3,68,0.00,,,0.00,WUHU216HW,2013-02-02 05:56:00,